createdAt,value
2016-08-11T00:00:47.965Z,69.26
2016-08-11T00:01:47.278Z,68.87
2016-08-11T00:02:48.021Z,68.97
2016-08-11T00:03:47.325Z,69.17
2016-08-11T00:04:47.348Z,68.97
2016-08-11T00:05:47.375Z,68.68
2016-08-11T00:06:47.393Z,68.68
2016-08-11T00:07:47.415Z,68.68
2016-08-11T00:08:47.437Z,68.87
2016-08-11T00:09:47.460Z,67.91
2016-08-11T00:10:47.482Z,66.58
2016-08-11T00:11:47.531Z,66.38
2016-08-11T00:12:47.540Z,66.48
2016-08-11T00:13:47.554Z,66.09
2016-08-11T00:14:47.578Z,66.67
2016-08-11T00:15:47.602Z,66.58
2016-08-11T00:16:47.626Z,67.25
2016-08-11T00:17:47.646Z,67.54
2016-08-11T00:18:47.672Z,67.34
2016-08-11T00:19:47.717Z,67.91
2016-08-11T00:20:47.715Z,67.91
2016-08-11T00:21:47.740Z,67.63
2016-08-11T00:22:47.762Z,67.72
2016-08-11T00:23:47.787Z,67.72
2016-08-11T00:24:47.810Z,67.44
2016-08-11T00:25:47.833Z,68.21
2016-08-11T00:26:47.857Z,68.11
2016-08-11T00:27:47.877Z,68.3
2016-08-11T00:28:47.913Z,68.01
2016-08-11T00:29:47.924Z,67.72
2016-08-11T00:30:47.954Z,67.63
2016-08-11T00:31:47.971Z,67.72
2016-08-11T00:32:47.993Z,67.54
2016-08-11T00:33:48.018Z,68.01
2016-08-11T00:34:48.755Z,68.4
2016-08-11T00:35:48.774Z,68.3
2016-08-11T00:36:48.088Z,68.4
2016-08-11T00:37:48.106Z,67.91
2016-08-11T00:38:48.134Z,67.91
2016-08-11T00:39:48.158Z,68.01
2016-08-11T00:40:48.176Z,68.01
2016-08-11T00:41:48.201Z,68.4
2016-08-11T00:42:48.245Z,67.44
2016-08-11T00:43:48.255Z,68.11
2016-08-11T00:44:48.272Z,67.44
2016-08-11T00:45:48.295Z,67.34
2016-08-11T00:46:48.319Z,67.25
2016-08-11T00:47:48.338Z,67.05
2016-08-11T00:48:49.076Z,67.25
2016-08-11T00:49:48.439Z,66.96
2016-08-11T00:50:48.410Z,67.15
2016-08-11T00:51:48.433Z,67.44
2016-08-11T00:52:48.457Z,66.86
2016-08-11T00:53:48.479Z,67.15
2016-08-11T00:54:48.502Z,68.11
2016-08-11T00:55:49.234Z,68.11
2016-08-11T00:56:48.549Z,67.63
2016-08-11T00:57:48.571Z,68.21
2016-08-11T00:58:48.597Z,67.91
2016-08-11T00:59:48.630Z,68.3
2016-08-11T01:00:48.640Z,68.3
2016-08-11T01:01:48.665Z,68.3
2016-08-11T01:02:49.407Z,67.91
2016-08-11T01:03:48.721Z,68.21
2016-08-11T01:04:48.740Z,67.91
2016-08-11T01:05:49.467Z,68.21
2016-08-11T01:06:49.493Z,67.63
2016-08-11T01:07:48.806Z,68.01
2016-08-11T01:08:48.824Z,68.3
2016-08-11T01:09:48.851Z,68.11
2016-08-11T01:10:48.876Z,68.4
2016-08-11T01:11:48.902Z,68.01
2016-08-11T01:12:48.921Z,67.63
2016-08-11T01:13:48.959Z,68.11
2016-08-11T01:14:48.971Z,68.11
2016-08-11T01:15:48.986Z,68.11
2016-08-11T01:16:49.013Z,68.11
2016-08-11T01:17:49.036Z,68.3
2016-08-11T01:18:49.058Z,68.21
2016-08-11T01:19:49.081Z,68.3
2016-08-11T01:20:49.106Z,68.4
2016-08-11T01:21:49.131Z,68.65
2016-08-11T01:22:49.150Z,69.17
2016-08-11T01:23:49.175Z,68.3
2016-08-11T01:24:49.198Z,68.4
2016-08-11T01:25:49.223Z,68.3
2016-08-11T01:26:49.242Z,68.3
2016-08-11T01:27:49.271Z,68.3
2016-08-11T01:28:50.001Z,69.07
2016-08-11T01:29:50.043Z,69.03
2016-08-11T01:30:49.346Z,68.49
2016-08-11T01:31:49.359Z,68.36
2016-08-11T01:32:49.380Z,68.94
2016-08-11T01:33:49.405Z,68.17
2016-08-11T01:34:49.430Z,68.07
2016-08-11T01:35:49.452Z,68.17
2016-08-11T01:36:49.474Z,67.15
2016-08-11T01:37:49.495Z,67.25
2016-08-11T01:38:49.522Z,67.5
2016-08-11T01:39:49.548Z,68.07
2016-08-11T01:40:49.565Z,67.5
2016-08-11T01:41:49.589Z,66.96
2016-08-11T01:42:49.615Z,67.54
2016-08-11T01:43:49.635Z,67.11
2016-08-11T01:44:49.674Z,67.5
2016-08-11T01:45:49.684Z,67.5
2016-08-11T01:46:50.418Z,66.77
2016-08-11T01:47:49.731Z,66.83
2016-08-11T01:48:49.751Z,67.41
2016-08-11T01:49:49.823Z,67.72
2016-08-11T01:50:49.794Z,67.31
2016-08-11T01:51:49.821Z,67.91
2016-08-11T01:52:49.843Z,67.41
2016-08-11T01:53:49.865Z,67.11
2016-08-11T01:54:49.888Z,67.02
2016-08-11T01:55:49.911Z,67.31
2016-08-11T01:56:49.943Z,67.31
2016-08-11T01:57:49.966Z,67.41
2016-08-11T01:58:49.981Z,67.88
2016-08-11T01:59:50.002Z,67.88
2016-08-11T02:00:50.050Z,67.11
2016-08-11T02:01:50.059Z,67.21
2016-08-11T02:02:50.069Z,68.27
2016-08-11T02:03:50.104Z,67.6
2016-08-11T02:04:50.118Z,67.79
2016-08-11T02:05:50.141Z,68.07
2016-08-11T02:06:50.162Z,67.41
2016-08-11T02:07:50.185Z,67.98
2016-08-11T02:08:50.210Z,67.69
2016-08-11T02:09:50.234Z,68.27
2016-08-11T02:10:50.254Z,67.88
2016-08-11T02:11:50.275Z,68.27
2016-08-11T02:12:50.299Z,67.5
2016-08-11T02:13:50.323Z,67.02
2016-08-11T02:14:50.345Z,68.07
2016-08-11T02:15:50.391Z,67.88
2016-08-11T02:16:50.400Z,67.5
2016-08-11T02:17:50.415Z,67.41
2016-08-11T02:18:50.442Z,67.69
2016-08-11T02:19:50.461Z,67.11
2016-08-11T02:20:50.481Z,66.93
2016-08-11T02:21:50.510Z,67.31
2016-08-11T02:22:50.528Z,67.27
2016-08-11T02:23:50.553Z,67.41
2016-08-11T02:24:50.571Z,67.6
2016-08-11T02:25:51.305Z,67.6
2016-08-11T02:26:50.618Z,67.88
2016-08-11T02:27:50.641Z,68.07
2016-08-11T02:28:50.665Z,67.69
2016-08-11T02:29:50.686Z,68.27
2016-08-11T02:30:50.709Z,68.17
2016-08-11T02:31:50.732Z,68.27
2016-08-11T02:32:50.775Z,68.65
2016-08-11T02:33:50.778Z,69.03
2016-08-11T02:34:50.799Z,69.23
2016-08-11T02:35:50.822Z,68.65
2016-08-11T02:36:50.846Z,68.17
2016-08-11T02:37:50.869Z,68.8
2016-08-11T02:38:50.891Z,69.03
2016-08-11T02:39:51.633Z,68.84
2016-08-11T02:40:50.945Z,69.13
2016-08-11T02:41:50.959Z,69.03
2016-08-11T02:42:51.703Z,69.13
2016-08-11T02:43:51.006Z,68.94
2016-08-11T02:44:51.739Z,68.84
2016-08-11T02:45:51.053Z,68.65
2016-08-11T02:46:51.076Z,68.07
2016-08-11T02:47:51.115Z,68.55
2016-08-11T02:48:51.122Z,68.65
2016-08-11T02:49:51.194Z,68.46
2016-08-11T02:50:51.168Z,68.65
2016-08-11T02:51:51.189Z,68.55
2016-08-11T02:52:51.213Z,69.03
2016-08-11T02:53:51.233Z,69.03
2016-08-11T02:54:51.270Z,67.5
2016-08-11T02:55:51.277Z,68.27
2016-08-11T02:56:51.302Z,67.88
2016-08-11T02:57:51.326Z,67.79
2016-08-11T02:59:51.369Z,68.55
2016-08-11T03:00:51.392Z,68.94
2016-08-11T03:01:51.413Z,68.84
2016-08-11T03:02:51.438Z,68.55
2016-08-11T03:03:51.462Z,68.27
2016-08-11T03:04:51.481Z,68.07
2016-08-11T03:05:51.505Z,68.04
2016-08-11T03:06:51.530Z,68.07
2016-08-11T03:07:51.561Z,68.65
2016-08-11T03:08:51.571Z,68.74
2016-08-11T03:09:51.605Z,67.98
2016-08-11T03:10:51.622Z,67.5
2016-08-11T03:11:52.351Z,67.5
2016-08-11T03:12:52.383Z,68.27
2016-08-11T03:14:51.711Z,69.23
2016-08-11T03:16:51.755Z,68.65
2016-08-11T03:17:51.789Z,68.36
2016-08-11T03:18:51.800Z,69.03
2016-08-11T03:19:51.823Z,69.32
2016-08-11T03:20:51.852Z,69.13
2016-08-11T03:21:51.873Z,69.03
2016-08-11T03:22:51.889Z,68.84
2016-08-11T03:23:51.912Z,68.94
2016-08-11T03:24:51.937Z,68.65
2016-08-11T03:25:51.979Z,68.94
2016-08-11T03:26:52.705Z,68.84
2016-08-11T03:27:52.001Z,69.23
2016-08-11T03:29:52.052Z,69.23
2016-08-11T03:30:52.077Z,69.03
2016-08-11T03:31:52.095Z,69.23
2016-08-11T03:32:52.117Z,68.94
2016-08-11T03:33:52.848Z,69.23
2016-08-11T03:34:52.161Z,69.32
2016-08-11T03:35:52.185Z,69.42
2016-08-11T03:36:52.207Z,69.03
2016-08-11T03:37:52.230Z,68.74
2016-08-11T03:38:52.254Z,68.55
2016-08-11T03:39:52.273Z,68.65
2016-08-11T03:40:52.320Z,69.23
2016-08-11T03:41:52.330Z,68.84
2016-08-11T03:42:52.344Z,68.84
2016-08-11T03:44:52.396Z,68.55
2016-08-11T03:45:52.410Z,69.03
2016-08-11T03:46:53.145Z,68.84
2016-08-11T03:47:52.456Z,68.84
2016-08-11T03:48:52.485Z,67.85
2016-08-11T03:49:52.502Z,68.17
2016-08-11T03:50:52.525Z,68.23
2016-08-11T03:51:53.258Z,68.94
2016-08-11T03:52:52.569Z,68.8
2016-08-11T03:53:52.592Z,68.74
2016-08-11T03:54:52.615Z,68.17
2016-08-11T03:55:52.639Z,68.46
2016-08-11T03:56:52.662Z,68.55
2016-08-11T03:57:52.704Z,68.84
2016-08-11T03:59:52.725Z,68.46
2016-08-11T04:00:52.752Z,68.65
2016-08-11T04:01:52.772Z,68.55
2016-08-11T04:02:52.809Z,68.65
2016-08-11T04:03:53.526Z,68.36
2016-08-11T04:04:52.844Z,68.55
2016-08-11T04:05:52.865Z,68.94
2016-08-11T04:06:52.886Z,69.03
2016-08-11T04:07:52.907Z,68.55
2016-08-11T04:08:52.933Z,67.94
2016-08-11T04:09:52.955Z,67.94
2016-08-11T04:10:53.685Z,68.52
2016-08-11T04:11:52.999Z,68.62
2016-08-11T04:12:53.023Z,68.94
2016-08-11T04:14:53.066Z,69.8
2016-08-11T04:15:53.088Z,69.67
2016-08-11T04:16:53.109Z,69.09
2016-08-11T04:17:53.841Z,69.48
2016-08-11T04:18:53.155Z,68.8
2016-08-11T04:19:53.214Z,68.94
2016-08-11T04:20:53.203Z,69
2016-08-11T04:21:53.222Z,69.09
2016-08-11T04:22:53.245Z,68.9
2016-08-11T04:23:53.276Z,69
2016-08-11T04:24:53.304Z,69.03
2016-08-11T04:25:53.313Z,68.71
2016-08-11T04:26:53.336Z,69.38
2016-08-11T04:27:53.359Z,68.8
2016-08-11T04:28:53.382Z,69
2016-08-11T04:29:53.401Z,69.86
2016-08-11T04:30:53.428Z,69.57
2016-08-11T04:31:53.455Z,69.76
2016-08-11T04:32:53.472Z,69.13
2016-08-11T04:33:53.491Z,69.76
2016-08-11T04:34:53.531Z,69.95
2016-08-11T04:35:54.251Z,69
2016-08-11T04:36:53.560Z,68.8
2016-08-11T04:37:53.588Z,68.9
2016-08-11T04:38:53.609Z,68.8
2016-08-11T04:39:53.635Z,68.8
2016-08-11T04:40:53.650Z,69
2016-08-11T04:41:53.674Z,69
2016-08-11T04:42:53.695Z,69.42
2016-08-11T04:44:53.740Z,69.23
2016-08-11T04:45:53.762Z,69.09
2016-08-11T04:46:53.787Z,68.62
2016-08-11T04:47:53.805Z,68.55
2016-08-11T04:48:53.829Z,68.8
2016-08-11T04:49:53.901Z,69
2016-08-11T04:50:54.583Z,68.9
2016-08-11T04:51:53.918Z,69.09
2016-08-11T04:52:53.919Z,68.42
2016-08-11T04:53:53.942Z,68.42
2016-08-11T04:54:53.961Z,68.9
2016-08-11T04:55:53.986Z,68.42
2016-08-11T04:56:54.010Z,68.13
2016-08-11T04:57:54.033Z,67.47
2016-08-11T04:58:54.055Z,67.76
2016-08-11T04:59:54.075Z,67.76
2016-08-11T05:00:54.096Z,68.04
2016-08-11T05:01:54.120Z,67.56
2016-08-11T05:02:54.141Z,67.85
2016-08-11T05:03:54.166Z,67.27
2016-08-11T05:04:54.188Z,67.56
2016-08-11T05:05:54.222Z,67.08
2016-08-11T05:06:54.230Z,67.37
2016-08-11T05:07:54.254Z,67.66
2016-08-11T05:08:54.278Z,67.66
2016-08-11T05:09:54.300Z,67.56
2016-08-11T05:10:54.322Z,67.94
2016-08-11T05:11:54.344Z,68.04
2016-08-11T05:12:54.365Z,67.94
2016-08-11T05:13:54.417Z,68.23
2016-08-11T05:14:54.420Z,68.04
2016-08-11T05:15:54.432Z,68.04
2016-08-11T05:16:54.464Z,67.85
2016-08-11T05:17:54.483Z,68.04
2016-08-11T05:18:54.506Z,68.13
2016-08-11T05:19:54.522Z,68.23
2016-08-11T05:20:54.549Z,67.66
2016-08-11T05:21:54.569Z,67.66
2016-08-11T05:22:54.591Z,68.33
2016-08-11T05:23:54.613Z,68.33
2016-08-11T05:24:54.634Z,68.42
2016-08-11T05:25:54.658Z,68.52
2016-08-11T05:26:54.678Z,68.04
2016-08-11T05:27:54.703Z,67.85
2016-08-11T05:28:54.747Z,68.04
2016-08-11T05:29:54.758Z,68.13
2016-08-11T05:30:54.770Z,67.76
2016-08-11T05:31:54.790Z,68.13
2016-08-11T05:32:54.812Z,68.42
2016-08-11T05:33:54.837Z,68.23
2016-08-11T05:34:54.859Z,68.62
2016-08-11T05:35:54.880Z,67.94
2016-08-11T05:36:54.903Z,68.04
2016-08-11T05:37:54.929Z,68.71
2016-08-11T05:38:54.948Z,69
2016-08-11T05:39:54.971Z,69
2016-08-11T05:40:54.991Z,69.76
2016-08-11T05:41:55.015Z,69.57
2016-08-11T05:42:55.035Z,69.09
2016-08-11T05:43:55.059Z,68.71
2016-08-11T05:44:55.086Z,68.52
2016-08-11T05:45:55.104Z,69.09
2016-08-11T05:46:55.127Z,69
2016-08-11T05:47:55.149Z,68.23
2016-08-11T05:48:55.171Z,69.86
2016-08-11T05:50:55.217Z,68.42
2016-08-11T05:51:55.246Z,68.33
2016-08-11T05:52:55.261Z,68.23
2016-08-11T05:53:55.289Z,68.62
2016-08-11T05:54:55.306Z,68.13
2016-08-11T05:55:55.329Z,68.8
2016-08-11T05:56:55.352Z,68.55
2016-08-11T05:57:55.373Z,68.9
2016-08-11T05:58:55.396Z,69.03
2016-08-11T05:59:55.416Z,69.13
2016-08-11T06:00:55.441Z,68.94
2016-08-11T06:01:55.463Z,68.84
2016-08-11T06:02:55.486Z,67.69
2016-08-11T06:03:55.507Z,67.98
2016-08-11T06:04:55.530Z,66.74
2016-08-11T06:05:55.552Z,66.74
2016-08-11T06:06:55.577Z,66.25
2016-08-11T06:07:55.622Z,65.78
2016-08-11T06:08:56.330Z,65.88
2016-08-11T06:09:55.644Z,66.93
2016-08-11T06:10:55.667Z,66.45
2016-08-11T06:11:55.689Z,65.97
2016-08-11T06:12:55.715Z,66.16
2016-08-11T06:13:55.735Z,67.21
2016-08-11T06:14:55.756Z,67.02
2016-08-11T06:15:55.786Z,66.45
2016-08-11T06:16:55.802Z,66.35
2016-08-11T06:17:55.822Z,67.11
2016-08-11T06:18:55.848Z,66.29
2016-08-11T06:19:55.871Z,65.81
2016-08-11T06:20:55.897Z,66.19
2016-08-11T06:21:55.915Z,64.82
2016-08-11T06:22:55.940Z,65.49
2016-08-11T06:23:56.687Z,65.23
2016-08-11T06:24:55.983Z,65.14
2016-08-11T06:25:56.006Z,64.56
2016-08-11T06:26:56.030Z,65.14
2016-08-11T06:27:56.761Z,65.71
2016-08-11T06:28:56.082Z,66.29
2016-08-11T06:29:56.102Z,66.86
2016-08-11T06:30:56.832Z,66.77
2016-08-11T06:31:56.143Z,65.91
2016-08-11T06:32:56.167Z,66.19
2016-08-11T06:33:56.189Z,66
2016-08-11T06:34:56.212Z,66.96
2016-08-11T06:35:56.233Z,67.15
2016-08-11T06:36:56.256Z,67.05
2016-08-11T06:37:56.991Z,66.29
2016-08-11T06:38:57.014Z,65.62
2016-08-11T06:39:56.344Z,65.65
2016-08-11T06:40:56.348Z,65.17
2016-08-11T06:41:56.372Z,64.59
2016-08-11T06:42:56.396Z,65.08
2016-08-11T06:43:57.130Z,64.66
2016-08-11T06:44:56.441Z,64.98
2016-08-11T06:45:56.465Z,65.17
2016-08-11T06:46:56.488Z,63.26
2016-08-11T06:47:56.512Z,62.96
2016-08-11T06:48:56.537Z,62.1
2016-08-11T06:49:56.563Z,62.55
2016-08-11T06:50:58.236Z,62.55
2016-08-11T06:51:56.605Z,63.45
2016-08-11T06:52:56.629Z,61.6
2016-08-11T06:53:57.366Z,61.82
2016-08-11T06:54:56.687Z,61.5
2016-08-11T06:55:56.701Z,61.11
2016-08-11T06:56:56.723Z,60.86
2016-08-11T06:57:56.747Z,60.76
2016-08-11T06:58:57.477Z,61.91
2016-08-11T06:59:56.790Z,61.72
2016-08-11T07:00:57.542Z,62.1
2016-08-11T07:01:56.840Z,61.05
2016-08-11T07:02:56.860Z,61.53
2016-08-11T07:03:56.886Z,61.34
2016-08-11T07:04:56.910Z,62.39
2016-08-11T07:05:56.940Z,62.01
2016-08-11T07:06:57.665Z,62.59
2016-08-11T07:07:56.977Z,62.39
2016-08-11T07:08:57.002Z,61.24
2016-08-11T07:09:57.026Z,60.96
2016-08-11T07:10:57.061Z,60.96
2016-08-11T07:11:57.071Z,61.15
2016-08-11T07:12:57.094Z,60.57
2016-08-11T07:13:57.122Z,60.67
2016-08-11T07:14:57.143Z,61.82
2016-08-11T07:15:57.167Z,61.63
2016-08-11T07:16:57.191Z,60.67
2016-08-11T07:17:57.924Z,60.38
2016-08-11T07:18:57.953Z,59.64
2016-08-11T07:19:57.265Z,59.64
2016-08-11T07:20:58.004Z,60.31
2016-08-11T07:21:57.307Z,60.41
2016-08-11T07:22:57.331Z,60.7
2016-08-11T07:23:57.356Z,61.66
2016-08-11T07:24:58.099Z,61.46
2016-08-11T07:25:57.403Z,61.85
2016-08-11T07:26:57.427Z,61.21
2016-08-11T07:27:57.452Z,59.67
2016-08-11T07:28:57.473Z,59.58
2016-08-11T07:29:57.496Z,60.35
2016-08-11T07:30:57.523Z,60.53
2016-08-11T07:31:58.259Z,61.02
2016-08-11T07:32:57.568Z,60.72
2016-08-11T07:33:57.592Z,61.4
2016-08-11T07:34:57.626Z,61.02
2016-08-11T07:35:57.650Z,59.96
2016-08-11T07:36:57.663Z,60.57
2016-08-11T07:37:57.700Z,58.55
2016-08-11T07:38:58.423Z,57.59
2016-08-11T07:39:57.739Z,57.5
2016-08-11T07:40:57.772Z,57.08
2016-08-11T07:41:57.792Z,56.02
2016-08-11T07:42:57.810Z,57.68
2016-08-11T07:43:57.835Z,59.51
2016-08-11T07:44:58.567Z,60.66
2016-08-11T07:45:57.885Z,59.8
2016-08-11T07:46:57.908Z,58.84
2016-08-11T07:47:58.642Z,57.4
2016-08-11T07:48:58.667Z,56.34
2016-08-11T07:49:57.995Z,56.92
2016-08-11T07:50:58.007Z,57.5
2016-08-11T07:51:58.129Z,56.53
2016-08-11T07:52:58.059Z,55.86
2016-08-11T07:53:58.078Z,55.86
2016-08-11T07:54:58.107Z,55.57
2016-08-11T07:55:58.135Z,54.9
2016-08-11T07:56:58.153Z,55.57
2016-08-11T07:57:58.186Z,55.67
2016-08-11T07:58:58.209Z,54.71
2016-08-11T07:59:58.283Z,56.15
2016-08-11T08:00:58.250Z,57.88
2016-08-11T08:01:58.277Z,57.5
2016-08-11T08:02:58.302Z,57.5
2016-08-11T08:03:58.326Z,58.26
2016-08-11T08:04:58.347Z,58.45
2016-08-11T08:05:58.373Z,57.78
2016-08-11T08:06:58.398Z,58.23
2016-08-11T08:07:58.419Z,57.37
2016-08-11T08:08:58.445Z,57.28
2016-08-11T08:09:58.468Z,58.23
2016-08-11T08:10:58.493Z,58.81
2016-08-11T08:11:59.226Z,58.33
2016-08-11T08:12:58.553Z,57.37
2016-08-11T08:13:59.274Z,55.74
2016-08-11T08:14:58.590Z,55.35
2016-08-11T08:15:58.611Z,55.74
2016-08-11T08:16:58.639Z,55.83
2016-08-11T08:17:58.662Z,55.62
2016-08-11T08:18:58.692Z,56.12
2016-08-11T08:19:58.710Z,59.09
2016-08-11T08:20:58.733Z,59.77
2016-08-11T08:21:58.757Z,60.05
2016-08-11T08:22:58.786Z,59.77
2016-08-11T08:23:58.807Z,58.36
2016-08-11T08:24:58.826Z,57.5
2016-08-11T08:25:58.854Z,57.01
2016-08-11T08:26:58.877Z,57.01
2016-08-11T08:27:58.917Z,54.23
2016-08-11T08:28:58.927Z,52.31
2016-08-11T08:29:59.661Z,51.64
2016-08-11T08:30:58.973Z,50.78
2016-08-11T08:31:59.002Z,50.58
2016-08-11T08:32:59.029Z,52.22
2016-08-11T08:33:59.047Z,52.79
2016-08-11T08:34:59.076Z,52.79
2016-08-11T08:35:59.099Z,52.79
2016-08-11T08:36:59.119Z,53.46
2016-08-11T08:37:59.144Z,54.23
2016-08-11T08:38:59.169Z,54.52
2016-08-11T08:39:59.195Z,55.29
2016-08-11T08:40:59.220Z,55.77
2016-08-11T08:41:59.242Z,54.35
2016-08-11T08:42:59.274Z,53.75
2016-08-11T08:43:59.292Z,55.47
2016-08-11T08:44:59.317Z,54.71
2016-08-11T08:45:59.339Z,55.47
2016-08-11T08:46:59.365Z,56.05
2016-08-11T08:47:59.387Z,55.96
2016-08-11T08:48:59.413Z,54.71
2016-08-11T08:49:59.436Z,55.38
2016-08-11T08:50:59.473Z,55.74
2016-08-11T08:51:59.487Z,54.58
2016-08-11T08:53:00.220Z,55.67
2016-08-11T08:53:59.533Z,56.05
2016-08-11T08:54:59.557Z,55.96
2016-08-11T08:55:59.588Z,57.5
2016-08-11T08:56:59.607Z,56.82
2016-08-11T08:57:59.632Z,54.04
2016-08-11T08:58:59.657Z,55.47
2016-08-11T08:59:59.704Z,54.83
2016-08-11T09:00:59.703Z,52.53
2016-08-11T09:01:59.729Z,52.14
2016-08-11T09:02:59.760Z,52.62
2016-08-11T09:03:59.780Z,53.3
2016-08-11T09:04:59.802Z,54.06
2016-08-11T09:05:59.827Z,54.09
2016-08-11T09:06:59.858Z,54.28
2016-08-11T09:07:59.879Z,51.59
2016-08-11T09:08:59.903Z,49.67
2016-08-11T09:09:59.927Z,49.87
2016-08-11T09:10:59.952Z,50.34
2016-08-11T09:11:59.978Z,48.9
2016-08-11T09:13:00.003Z,50.25
2016-08-11T09:14:00.735Z,50.05
2016-08-11T09:15:00.067Z,49.67
2016-08-11T09:16:00.077Z,51.02
2016-08-11T09:17:00.100Z,50.82
2016-08-11T09:18:00.125Z,51.5
2016-08-11T09:19:00.150Z,51.59
2016-08-11T09:20:00.175Z,50.63
2016-08-11T09:21:00.201Z,50.63
2016-08-11T09:22:00.225Z,50.92
2016-08-11T09:23:00.250Z,48.81
2016-08-11T09:24:00.294Z,49.1
2016-08-11T09:25:00.301Z,48.13
2016-08-11T09:26:00.327Z,48.33
2016-08-11T09:27:00.351Z,47.72
2016-08-11T09:28:00.376Z,49.19
2016-08-11T09:29:00.404Z,49.77
2016-08-11T09:30:00.428Z,48.9
2016-08-11T09:31:00.449Z,49.1
2016-08-11T09:32:00.480Z,51.79
2016-08-11T09:33:00.499Z,51.11
2016-08-11T09:34:00.524Z,50.73
2016-08-11T09:35:00.549Z,50.15
2016-08-11T09:36:00.574Z,51.53
2016-08-11T09:37:00.597Z,53.54
2016-08-11T09:38:00.626Z,53.74
2016-08-11T09:39:00.650Z,51.53
2016-08-11T09:40:00.676Z,52.29
2016-08-11T09:41:00.699Z,50.18
2016-08-11T09:42:00.723Z,49.89
2016-08-11T09:43:00.753Z,49.99
2016-08-11T09:44:01.487Z,49.89
2016-08-11T09:45:00.804Z,49.69
2016-08-11T09:46:00.845Z,47.3
2016-08-11T09:47:00.851Z,47.2
2016-08-11T09:48:00.882Z,45.66
2016-08-11T09:49:00.907Z,44.6
2016-08-11T09:50:00.928Z,45.76
2016-08-11T09:51:00.952Z,46.53
2016-08-11T09:52:00.979Z,48.16
2016-08-11T09:53:01.004Z,49.22
2016-08-11T09:54:01.738Z,50.76
2016-08-11T09:55:01.070Z,48.85
2016-08-11T09:56:01.082Z,48.16
2016-08-11T09:57:01.118Z,48.28
2016-08-11T09:58:01.130Z,48.16
2016-08-11T09:59:01.159Z,46.81
2016-08-11T10:00:01.181Z,47.58
2016-08-11T10:01:01.924Z,48.16
2016-08-11T10:02:01.234Z,47
2016-08-11T10:03:01.260Z,47.97
2016-08-11T10:04:01.283Z,47.97
2016-08-11T10:05:01.313Z,48.25
2016-08-11T10:06:01.332Z,48.93
2016-08-11T10:07:01.359Z,50.46
2016-08-11T10:08:01.384Z,50.85
2016-08-11T10:09:01.410Z,51.14
2016-08-11T10:10:01.435Z,51.62
2016-08-11T10:11:01.463Z,49.51
2016-08-11T10:12:01.488Z,49.6
2016-08-11T10:13:01.510Z,50.56
2016-08-11T10:14:01.537Z,52.2
2016-08-11T10:15:01.564Z,53.57
2016-08-11T10:16:01.592Z,54.91
2016-08-11T10:17:01.616Z,55.78
2016-08-11T10:18:01.653Z,57.03
2016-08-11T10:19:01.664Z,57.99
2016-08-11T10:20:01.690Z,57.99
2016-08-11T10:21:01.723Z,55.43
2016-08-11T10:22:01.742Z,54.85
2016-08-11T10:23:01.768Z,55.81
2016-08-11T10:24:01.795Z,56.2
2016-08-11T10:25:01.819Z,52.06
2016-08-11T10:26:01.867Z,53.23
2016-08-11T10:27:01.877Z,51.7
2016-08-11T10:28:01.898Z,52.85
2016-08-11T10:29:01.923Z,51.7
2016-08-11T10:30:01.949Z,48.33
2016-08-11T10:31:01.976Z,48.74
2016-08-11T10:32:02.001Z,48.44
2016-08-11T10:33:02.036Z,49.12
2016-08-11T10:34:02.766Z,50.85
2016-08-11T10:35:02.094Z,47.58
2016-08-11T10:36:02.826Z,46.81
2016-08-11T10:37:02.136Z,49.41
2016-08-11T10:38:02.166Z,49.82
2016-08-11T10:39:02.187Z,49.73
2016-08-11T10:40:02.216Z,50.78
2016-08-11T10:41:02.240Z,49.24
2016-08-11T10:42:02.269Z,49.24
2016-08-11T10:43:02.312Z,47.89
2016-08-11T10:44:02.323Z,48.47
2016-08-11T10:45:02.350Z,45.2
2016-08-11T10:46:02.380Z,49.73
2016-08-11T10:47:02.399Z,50.98
2016-08-11T10:48:02.430Z,47.41
2016-08-11T10:49:03.166Z,49.65
2016-08-11T10:50:02.485Z,42.61
2016-08-11T10:51:02.560Z,41.05
2016-08-11T10:52:02.549Z,41.55
2016-08-11T10:53:02.562Z,40.97
2016-08-11T10:54:02.591Z,41.82
2016-08-11T10:55:02.617Z,43.17
2016-08-11T10:56:02.644Z,42.97
2016-08-11T10:57:02.672Z,42.42
2016-08-11T10:58:02.700Z,45.29
2016-08-11T10:59:02.745Z,47.89
2016-08-11T11:00:03.461Z,48.57
2016-08-11T11:01:02.777Z,47.89
2016-08-11T11:02:02.807Z,47.51
2016-08-11T11:03:02.834Z,47.22
2016-08-11T11:04:02.861Z,47.41
2016-08-11T11:05:02.999Z,44.13
2016-08-11T11:06:02.915Z,42.88
2016-08-11T11:07:02.963Z,42.02
2016-08-11T11:08:02.966Z,41.24
2016-08-11T11:09:02.992Z,41.14
2016-08-11T11:10:03.021Z,40.94
2016-08-11T11:11:03.761Z,41.14
2016-08-11T11:12:03.074Z,41.32
2016-08-11T11:13:03.101Z,40.45
2016-08-11T11:14:03.125Z,41.99
2016-08-11T11:15:03.156Z,41.53
2016-08-11T11:16:03.187Z,40.76
2016-08-11T11:17:03.208Z,39.51
2016-08-11T11:18:03.236Z,40.28
2016-08-11T11:19:03.259Z,38.64
2016-08-11T11:20:03.289Z,40.76
2016-08-11T11:21:03.317Z,38.74
2016-08-11T11:22:03.342Z,37.58
2016-08-11T11:23:03.369Z,36.71
2016-08-11T11:24:03.399Z,38.64
2016-08-11T11:25:03.422Z,39.2
2016-08-11T11:26:03.448Z,38.83
2016-08-11T11:27:03.475Z,40.19
2016-08-11T11:28:03.502Z,40.47
2016-08-11T11:29:03.531Z,41.82
2016-08-11T11:31:03.589Z,42.21
2016-08-11T11:32:03.609Z,45.77
2016-08-11T11:33:03.638Z,47.99
2016-08-11T11:34:03.662Z,47.99
2016-08-11T11:35:03.690Z,41.82
2016-08-11T11:36:03.718Z,37.19
2016-08-11T11:37:03.742Z,35.75
2016-08-11T11:38:03.771Z,34.3
2016-08-11T11:39:03.799Z,36.71
2016-08-11T11:40:03.826Z,34.98
2016-08-11T11:41:03.849Z,34.59
2016-08-11T11:42:03.878Z,34.69
2016-08-11T11:43:03.908Z,34.59
2016-08-11T11:44:05.220Z,35.17
2016-08-11T11:46:03.985Z,34.21
2016-08-11T11:47:04.012Z,34.21
2016-08-11T11:48:04.042Z,36.02
2016-08-11T11:49:04.063Z,36.61
2016-08-11T11:50:04.092Z,38.16
2016-08-11T11:51:04.121Z,40.47
2016-08-11T11:52:04.870Z,43.15
2016-08-11T11:53:04.179Z,43.54
2016-08-11T11:54:04.199Z,43.82
2016-08-11T11:55:04.227Z,44.21
2016-08-11T11:56:04.963Z,45.68
2016-08-11T11:57:04.277Z,42.49
2016-08-11T11:58:04.307Z,40.47
2016-08-11T11:59:04.337Z,39.89
2016-08-11T12:01:04.389Z,38.74
2016-08-11T12:02:04.415Z,39.89
2016-08-11T12:03:05.150Z,38.26
2016-08-11T12:04:05.177Z,37.48
2016-08-11T12:05:04.494Z,37.96
2016-08-11T12:06:04.519Z,37.87
2016-08-11T12:07:04.563Z,36.43
2016-08-11T12:08:04.575Z,36.71
2016-08-11T12:09:04.600Z,37.58
2016-08-11T12:10:04.628Z,37.68
2016-08-11T12:11:04.660Z,39.31
2016-08-11T12:12:04.682Z,41.53
2016-08-11T12:13:04.709Z,43.55
2016-08-11T12:14:04.742Z,42.79
2016-08-11T12:15:04.767Z,42.4
2016-08-11T12:16:04.791Z,39.12
2016-08-11T12:17:04.813Z,39.11
2016-08-11T12:18:04.843Z,40.64
2016-08-11T12:19:04.871Z,39.78
2016-08-11T12:20:04.898Z,38.14
2016-08-11T12:21:05.639Z,36.11
2016-08-11T12:22:04.951Z,37.18
2016-08-11T12:23:04.976Z,39.59
2016-08-11T12:24:05.024Z,38.81
2016-08-11T12:25:05.032Z,40.94
2016-08-11T12:26:05.060Z,42.09
2016-08-11T12:27:05.082Z,39.09
2016-08-11T12:28:05.109Z,39.49
2016-08-11T12:29:05.136Z,41.41
2016-08-11T12:30:05.875Z,41.41
2016-08-11T12:31:05.190Z,40.45
2016-08-11T12:32:05.215Z,42.09
2016-08-11T12:33:05.245Z,41.22
2016-08-11T12:34:05.274Z,41.89
2016-08-11T12:35:05.296Z,41.99
2016-08-11T12:36:05.324Z,46.52
2016-08-11T12:37:06.060Z,47.77
2016-08-11T12:38:05.376Z,47.99
2016-08-11T12:39:05.403Z,48.28
2016-08-11T12:40:05.429Z,46.64
2016-08-11T12:41:05.465Z,48.95
2016-08-11T12:42:06.193Z,47.8
2016-08-11T12:43:05.510Z,47.6
2016-08-11T12:44:05.536Z,40.86
2016-08-11T12:45:05.570Z,35.38
2016-08-11T12:46:05.590Z,36.71
2016-08-11T12:47:05.619Z,37.89
2016-08-11T12:48:05.646Z,38.76
2016-08-11T12:49:05.681Z,38.08
2016-08-11T12:50:05.704Z,37.31
2016-08-11T12:51:05.733Z,36.73
2016-08-11T12:52:05.751Z,34.52
2016-08-11T12:53:05.781Z,35.86
2016-08-11T12:54:05.807Z,37.31
2016-08-11T12:55:05.836Z,36.94
2016-08-11T12:56:05.863Z,41.38
2016-08-11T12:57:05.900Z,42.73
2016-08-11T12:58:05.924Z,43.5
2016-08-11T12:59:05.942Z,43.12
2016-08-11T13:00:06.681Z,42.03
2016-08-11T13:01:05.999Z,39.14
2016-08-11T13:02:06.026Z,36.06
2016-08-11T13:03:06.053Z,36.15
2016-08-11T13:04:06.080Z,34.9
2016-08-11T13:05:06.115Z,33.74
2016-08-11T13:06:06.138Z,33.94
2016-08-11T13:07:06.162Z,35.19
2016-08-11T13:08:06.188Z,34.52
2016-08-11T13:09:06.216Z,36.54